sensor_id;sensor_type;location;lat;lon;timestamp;temperature;humidity
3001;DHT22;1510;51.072;6.678;2022-10-16T00:00:39;12.20;99.90
3001;DHT22;1510;51.072;6.678;2022-10-16T00:03:09;12.30;99.90
3001;DHT22;1510;51.072;6.678;2022-10-16T00:05:39;12.40;99.90
3001;DHT22;1510;51.072;6.678;2022-10-16T00:08:06;12.40;99.90
3001;DHT22;1510;51.072;6.678;2022-10-16T00:10:33;12.50;99.90
3001;DHT22;1510;51.072;6.678;2022-10-16T00:13:00;12.50;99.90
3001;DHT22;1510;51.072;6.678;2022-10-16T00:15:28;12.60;99.90
3001;DHT22;1510;51.072;6.678;2022-10-16T00:17:55;12.60;99.90
3001;DHT22;1510;51.072;6.678;2022-10-16T00:20:21;12.50;99.90
3001;DHT22;1510;51.072;6.678;2022-10-16T00:22:48;12.60;99.90
3001;DHT22;1510;51.072;6.678;2022-10-16T00:25:15;12.60;99.90
3001;DHT22;1510;51.072;6.678;2022-10-16T00:27:41;12.50;99.90
3001;DHT22;1510;51.072;6.678;2022-10-16T00:30:09;12.60;99.90
3001;DHT22;1510;51.072;6.678;2022-10-16T00:32:37;12.60;99.90
3001;DHT22;1510;51.072;6.678;2022-10-16T00:35:04;12.60;99.90
3001;DHT22;1510;51.072;6.678;2022-10-16T00:37:31;12.60;99.90
3001;DHT22;1510;51.072;6.678;2022-10-16T00:39:58;12.50;99.90
3001;DHT22;1510;51.072;6.678;2022-10-16T00:42:24;12.50;99.90
3001;DHT22;1510;51.072;6.678;2022-10-16T00:44:53;12.40;99.90
3001;DHT22;1510;51.072;6.678;2022-10-16T00:47:23;12.30;99.90
3001;DHT22;1510;51.072;6.678;2022-10-16T00:49:57;12.40;99.90
3001;DHT22;1510;51.072;6.678;2022-10-16T00:52:24;12.30;99.90
3001;DHT22;1510;51.072;6.678;2022-10-16T00:54:52;12.20;99.90
3001;DHT22;1510;51.072;6.678;2022-10-16T00:57:20;12.30;99.90
3001;DHT22;1510;51.072;6.678;2022-10-16T00:59:46;12.20;99.90
3001;DHT22;1510;51.072;6.678;2022-10-16T01:02:16;12.30;99.90
3001;DHT22;1510;51.072;6.678;2022-10-16T01:04:46;12.30;99.90
3001;DHT22;1510;51.072;6.678;2022-10-16T01:07:20;12.40;99.90
3001;DHT22;1510;51.072;6.678;2022-10-16T01:10:02;12.30;99.90
3001;DHT22;1510;51.072;6.678;2022-10-16T01:12:38;12.30;99.90
3001;DHT22;1510;51.072;6.678;2022-10-16T01:15:11;12.40;99.90
3001;DHT22;1510;51.072;6.678;2022-10-16T01:17:43;12.20;99.90
3001;DHT22;1510;51.072;6.678;2022-10-16T01:20:17;12.20;99.90
3001;DHT22;1510;51.072;6.678;2022-10-16T01:22:59;12.20;99.90
3001;DHT22;1510;51.072;6.678;2022-10-16T01:25:37;12.10;99.90
3001;DHT22;1510;51.072;6.678;2022-10-16T01:28:09;12.10;99.90
3001;DHT22;1510;51.072;6.678;2022-10-16T01:30:37;12.10;99.90
3001;DHT22;1510;51.072;6.678;2022-10-16T01:33:10;12.10;99.90
3001;DHT22;1510;51.072;6.678;2022-10-16T01:35:42;12.10;99.90
3001;DHT22;1510;51.072;6.678;2022-10-16T01:38:14;12.20;99.90
3001;DHT22;1510;51.072;6.678;2022-10-16T01:40:47;12.10;99.90
3001;DHT22;1510;51.072;6.678;2022-10-16T01:43:20;12.10;99.90
3001;DHT22;1510;51.072;6.678;2022-10-16T01:45:49;12.10;99.90
3001;DHT22;1510;51.072;6.678;2022-10-16T01:48:18;12.10;99.90
3001;DHT22;1510;51.072;6.678;2022-10-16T01:50:52;12.00;99.90
3001;DHT22;1510;51.072;6.678;2022-10-16T01:53:20;12.00;99.90
3001;DHT22;1510;51.072;6.678;2022-10-16T01:55:49;12.00;99.90
3001;DHT22;1510;51.072;6.678;2022-10-16T01:58:18;12.10;99.90
3001;DHT22;1510;51.072;6.678;2022-10-16T02:00:46;12.30;99.90
3001;DHT22;1510;51.072;6.678;2022-10-16T02:03:16;12.30;99.90
3001;DHT22;1510;51.072;6.678;2022-10-16T02:05:46;12.30;99.90
3001;DHT22;1510;51.072;6.678;2022-10-16T02:08:13;12.30;99.90
3001;DHT22;1510;51.072;6.678;2022-10-16T02:10:40;12.20;99.90
3001;DHT22;1510;51.072;6.678;2022-10-16T02:13:10;12.30;99.90
3001;DHT22;1510;51.072;6.678;2022-10-16T02:15:38;12.30;99.90
3001;DHT22;1510;51.072;6.678;2022-10-16T02:18:06;12.40;99.90
3001;DHT22;1510;51.072;6.678;2022-10-16T02:20:38;12.40;99.90
3001;DHT22;1510;51.072;6.678;2022-10-16T02:23:12;12.40;99.90
3001;DHT22;1510;51.072;6.678;2022-10-16T02:25:44;12.50;99.90
3001;DHT22;1510;51.072;6.678;2022-10-16T02:28:16;12.40;99.90
3001;DHT22;1510;51.072;6.678;2022-10-16T02:30:48;12.50;99.90
3001;DHT22;1510;51.072;6.678;2022-10-16T02:33:18;12.50;99.90
3001;DHT22;1510;51.072;6.678;2022-10-16T02:35:47;12.60;99.90
3001;DHT22;1510;51.072;6.678;2022-10-16T02:38:16;12.60;99.90
3001;DHT22;1510;51.072;6.678;2022-10-16T02:40:44;12.60;99.90
3001;DHT22;1510;51.072;6.678;2022-10-16T02:43:11;12.60;99.90
3001;DHT22;1510;51.072;6.678;2022-10-16T02:45:38;12.70;99.90
3001;DHT22;1510;51.072;6.678;2022-10-16T02:48:06;12.70;99.90
3001;DHT22;1510;51.072;6.678;2022-10-16T02:50:33;12.70;99.90
3001;DHT22;1510;51.072;6.678;2022-10-16T02:53:00;12.90;99.90
3001;DHT22;1510;51.072;6.678;2022-10-16T02:55:27;12.80;99.90
3001;DHT22;1510;51.072;6.678;2022-10-16T02:57:54;12.80;99.90
3001;DHT22;1510;51.072;6.678;2022-10-16T03:00:21;12.80;99.90
3001;DHT22;1510;51.072;6.678;2022-10-16T03:02:47;12.70;99.90
3001;DHT22;1510;51.072;6.678;2022-10-16T03:05:16;12.60;99.90
3001;DHT22;1510;51.072;6.678;2022-10-16T03:07:42;12.60;99.90
3001;DHT22;1510;51.072;6.678;2022-10-16T03:10:09;12.60;99.90
3001;DHT22;1510;51.072;6.678;2022-10-16T03:12:36;12.60;99.90
3001;DHT22;1510;51.072;6.678;2022-10-16T03:15:03;12.60;99.90
3001;DHT22;1510;51.072;6.678;2022-10-16T03:17:32;12.50;99.90
3001;DHT22;1510;51.072;6.678;2022-10-16T03:19:58;12.50;99.90
3001;DHT22;1510;51.072;6.678;2022-10-16T03:22:26;12.40;99.90
3001;DHT22;1510;51.072;6.678;2022-10-16T03:24:53;12.30;99.90
3001;DHT22;1510;51.072;6.678;2022-10-16T03:27:20;12.30;99.90
3001;DHT22;1510;51.072;6.678;2022-10-16T03:29:47;12.30;99.90
3001;DHT22;1510;51.072;6.678;2022-10-16T03:32:14;12.30;99.90
3001;DHT22;1510;51.072;6.678;2022-10-16T03:34:40;12.30;99.90
3001;DHT22;1510;51.072;6.678;2022-10-16T03:37:07;12.40;99.90
3001;DHT22;1510;51.072;6.678;2022-10-16T03:39:35;12.40;99.90
3001;DHT22;1510;51.072;6.678;2022-10-16T03:42:02;12.50;99.90
3001;DHT22;1510;51.072;6.678;2022-10-16T03:44:29;12.60;99.90
3001;DHT22;1510;51.072;6.678;2022-10-16T03:46:56;12.60;99.90
3001;DHT22;1510;51.072;6.678;2022-10-16T03:49:23;12.60;99.90
3001;DHT22;1510;51.072;6.678;2022-10-16T03:51:49;12.60;99.90
3001;DHT22;1510;51.072;6.678;2022-10-16T03:54:16;12.60;99.90
3001;DHT22;1510;51.072;6.678;2022-10-16T03:56:44;12.60;99.90
3001;DHT22;1510;51.072;6.678;2022-10-16T03:59:11;12.60;99.90
3001;DHT22;1510;51.072;6.678;2022-10-16T04:01:37;12.50;99.90
3001;DHT22;1510;51.072;6.678;2022-10-16T04:04:04;12.40;99.90
3001;DHT22;1510;51.072;6.678;2022-10-16T04:06:31;12.40;99.90
3001;DHT22;1510;51.072;6.678;2022-10-16T04:08:58;12.40;99.90
3001;DHT22;1510;51.072;6.678;2022-10-16T04:11:24;12.40;99.90
3001;DHT22;1510;51.072;6.678;2022-10-16T04:13:52;12.40;99.90
3001;DHT22;1510;51.072;6.678;2022-10-16T04:16:19;12.30;99.90
3001;DHT22;1510;51.072;6.678;2022-10-16T04:18:46;12.30;99.90
3001;DHT22;1510;51.072;6.678;2022-10-16T04:21:13;12.30;99.90
3001;DHT22;1510;51.072;6.678;2022-10-16T04:23:39;12.30;99.90
3001;DHT22;1510;51.072;6.678;2022-10-16T04:26:06;12.20;99.90
3001;DHT22;1510;51.072;6.678;2022-10-16T04:28:33;12.30;99.90
3001;DHT22;1510;51.072;6.678;2022-10-16T04:31:03;12.30;99.90
3001;DHT22;1510;51.072;6.678;2022-10-16T04:33:30;12.30;99.90
3001;DHT22;1510;51.072;6.678;2022-10-16T04:35:57;12.30;99.90
3001;DHT22;1510;51.072;6.678;2022-10-16T04:38:24;12.20;99.90
3001;DHT22;1510;51.072;6.678;2022-10-16T04:40:52;12.20;99.90
3001;DHT22;1510;51.072;6.678;2022-10-16T04:43:18;12.30;99.90
3001;DHT22;1510;51.072;6.678;2022-10-16T04:45:46;12.30;99.90
3001;DHT22;1510;51.072;6.678;2022-10-16T04:48:14;12.30;99.90
3001;DHT22;1510;51.072;6.678;2022-10-16T04:50:41;12.30;99.90
3001;DHT22;1510;51.072;6.678;2022-10-16T04:53:07;12.10;99.90
3001;DHT22;1510;51.072;6.678;2022-10-16T04:55:34;11.90;99.90
3001;DHT22;1510;51.072;6.678;2022-10-16T04:58:01;11.80;99.90
3001;DHT22;1510;51.072;6.678;2022-10-16T05:00:37;11.80;99.90
3001;DHT22;1510;51.072;6.678;2022-10-16T05:06:32;11.60;99.90
3001;DHT22;1510;51.072;6.678;2022-10-16T05:09:02;11.50;99.90
3001;DHT22;1510;51.072;6.678;2022-10-16T05:12:11;11.40;99.90
3001;DHT22;1510;51.072;6.678;2022-10-16T05:21:59;11.30;99.90
3001;DHT22;1510;51.072;6.678;2022-10-16T05:24:50;11.20;99.90
3001;DHT22;1510;51.072;6.678;2022-10-16T05:27:49;11.00;99.90
3001;DHT22;1510;51.072;6.678;2022-10-16T05:30:49;10.90;99.90
3001;DHT22;1510;51.072;6.678;2022-10-16T05:33:53;11.00;99.90
3001;DHT22;1510;51.072;6.678;2022-10-16T05:36:39;11.10;99.90
3001;DHT22;1510;51.072;6.678;2022-10-16T05:39:07;11.00;99.90
3001;DHT22;1510;51.072;6.678;2022-10-16T05:41:34;10.90;99.90
3001;DHT22;1510;51.072;6.678;2022-10-16T05:44:04;11.00;99.90
3001;DHT22;1510;51.072;6.678;2022-10-16T05:46:30;11.00;99.90
3001;DHT22;1510;51.072;6.678;2022-10-16T05:48:57;11.00;99.90
3001;DHT22;1510;51.072;6.678;2022-10-16T05:51:24;10.90;99.90
3001;DHT22;1510;51.072;6.678;2022-10-16T05:53:52;11.00;99.90
3001;DHT22;1510;51.072;6.678;2022-10-16T05:56:20;11.00;99.90
3001;DHT22;1510;51.072;6.678;2022-10-16T05:59:03;11.10;99.90
3001;DHT22;1510;51.072;6.678;2022-10-16T06:01:41;11.10;99.90
3001;DHT22;1510;51.072;6.678;2022-10-16T06:04:08;11.30;99.90
3001;DHT22;1510;51.072;6.678;2022-10-16T06:09:04;11.20;99.90
3001;DHT22;1510;51.072;6.678;2022-10-16T06:11:33;11.40;99.90
3001;DHT22;1510;51.072;6.678;2022-10-16T06:14:01;11.40;99.90
3001;DHT22;1510;51.072;6.678;2022-10-16T06:16:32;11.40;99.90
3001;DHT22;1510;51.072;6.678;2022-10-16T06:18:59;11.30;99.90
3001;DHT22;1510;51.072;6.678;2022-10-16T06:21:31;11.40;99.90
3001;DHT22;1510;51.072;6.678;2022-10-16T06:23:58;11.50;99.90
3001;DHT22;1510;51.072;6.678;2022-10-16T06:26:27;11.50;99.90
3001;DHT22;1510;51.072;6.678;2022-10-16T06:28:56;11.50;99.90
3001;DHT22;1510;51.072;6.678;2022-10-16T06:31:23;11.50;99.90
3001;DHT22;1510;51.072;6.678;2022-10-16T06:33:53;11.50;99.90
3001;DHT22;1510;51.072;6.678;2022-10-16T06:36:22;11.60;99.90
3001;DHT22;1510;51.072;6.678;2022-10-16T06:38:48;11.70;99.90
3001;DHT22;1510;51.072;6.678;2022-10-16T06:41:17;11.80;99.90
3001;DHT22;1510;51.072;6.678;2022-10-16T06:43:45;11.80;99.90
3001;DHT22;1510;51.072;6.678;2022-10-16T06:46:14;11.90;99.90
3001;DHT22;1510;51.072;6.678;2022-10-16T06:48:41;12.00;99.90
3001;DHT22;1510;51.072;6.678;2022-10-16T06:51:10;12.20;99.90
3001;DHT22;1510;51.072;6.678;2022-10-16T06:53:39;12.30;99.90
3001;DHT22;1510;51.072;6.678;2022-10-16T06:56:07;12.40;99.90
3001;DHT22;1510;51.072;6.678;2022-10-16T06:58:34;12.60;99.90
3001;DHT22;1510;51.072;6.678;2022-10-16T07:01:01;12.80;99.90
3001;DHT22;1510;51.072;6.678;2022-10-16T07:03:29;12.70;99.90
3001;DHT22;1510;51.072;6.678;2022-10-16T07:05:55;12.80;99.90
3001;DHT22;1510;51.072;6.678;2022-10-16T07:08:22;12.80;99.90
3001;DHT22;1510;51.072;6.678;2022-10-16T07:10:58;12.80;99.90
3001;DHT22;1510;51.072;6.678;2022-10-16T07:13:25;12.90;99.90
3001;DHT22;1510;51.072;6.678;2022-10-16T07:15:52;12.90;99.90
3001;DHT22;1510;51.072;6.678;2022-10-16T07:18:19;12.80;99.90
3001;DHT22;1510;51.072;6.678;2022-10-16T07:20:47;12.80;99.90
3001;DHT22;1510;51.072;6.678;2022-10-16T07:23:13;12.80;99.90
3001;DHT22;1510;51.072;6.678;2022-10-16T07:25:40;13.00;99.90
3001;DHT22;1510;51.072;6.678;2022-10-16T07:28:07;13.00;99.90
3001;DHT22;1510;51.072;6.678;2022-10-16T07:30:35;13.10;99.90
3001;DHT22;1510;51.072;6.678;2022-10-16T07:33:03;13.10;99.90
3001;DHT22;1510;51.072;6.678;2022-10-16T07:35:30;13.10;99.90
3001;DHT22;1510;51.072;6.678;2022-10-16T07:37:58;13.20;99.90
3001;DHT22;1510;51.072;6.678;2022-10-16T07:40:24;13.20;99.90
3001;DHT22;1510;51.072;6.678;2022-10-16T07:42:52;13.20;99.90
3001;DHT22;1510;51.072;6.678;2022-10-16T07:45:19;13.30;99.90
3001;DHT22;1510;51.072;6.678;2022-10-16T07:47:46;13.40;99.90
3001;DHT22;1510;51.072;6.678;2022-10-16T07:50:12;13.60;99.90
3001;DHT22;1510;51.072;6.678;2022-10-16T07:52:39;13.60;99.90
3001;DHT22;1510;51.072;6.678;2022-10-16T07:55:08;13.70;99.90
3001;DHT22;1510;51.072;6.678;2022-10-16T07:57:35;13.80;99.90
3001;DHT22;1510;51.072;6.678;2022-10-16T08:00:01;14.00;99.90
3001;DHT22;1510;51.072;6.678;2022-10-16T08:02:28;14.20;99.90
3001;DHT22;1510;51.072;6.678;2022-10-16T08:04:55;14.20;99.90
3001;DHT22;1510;51.072;6.678;2022-10-16T08:07:22;14.40;99.90
3001;DHT22;1510;51.072;6.678;2022-10-16T08:09:49;14.50;99.90
3001;DHT22;1510;51.072;6.678;2022-10-16T08:12:18;14.60;99.90
3001;DHT22;1510;51.072;6.678;2022-10-16T08:14:45;14.60;99.90
3001;DHT22;1510;51.072;6.678;2022-10-16T08:17:13;14.70;99.90
3001;DHT22;1510;51.072;6.678;2022-10-16T08:19:44;14.80;99.90
3001;DHT22;1510;51.072;6.678;2022-10-16T08:22:11;14.90;99.90
3001;DHT22;1510;51.072;6.678;2022-10-16T08:24:38;14.90;99.90
3001;DHT22;1510;51.072;6.678;2022-10-16T08:27:04;15.00;99.90
3001;DHT22;1510;51.072;6.678;2022-10-16T08:29:33;15.10;99.90
3001;DHT22;1510;51.072;6.678;2022-10-16T08:32:00;15.20;99.90
3001;DHT22;1510;51.072;6.678;2022-10-16T08:34:27;15.20;99.90
3001;DHT22;1510;51.072;6.678;2022-10-16T08:36:54;15.30;99.90
3001;DHT22;1510;51.072;6.678;2022-10-16T08:39:20;15.40;99.90
3001;DHT22;1510;51.072;6.678;2022-10-16T08:45:15;15.60;99.90
3001;DHT22;1510;51.072;6.678;2022-10-16T08:47:49;15.80;99.90
3001;DHT22;1510;51.072;6.678;2022-10-16T08:50:23;15.90;99.90
3001;DHT22;1510;51.072;6.678;2022-10-16T08:52:52;16.00;99.90
3001;DHT22;1510;51.072;6.678;2022-10-16T08:55:30;16.10;99.90
3001;DHT22;1510;51.072;6.678;2022-10-16T08:57:59;16.30;99.90
3001;DHT22;1510;51.072;6.678;2022-10-16T09:00:27;16.30;99.90
3001;DHT22;1510;51.072;6.678;2022-10-16T09:03:03;16.70;99.90
3001;DHT22;1510;51.072;6.678;2022-10-16T09:05:57;17.00;99.90
3001;DHT22;1510;51.072;6.678;2022-10-16T09:08:33;17.40;99.90
3001;DHT22;1510;51.072;6.678;2022-10-16T09:11:09;17.90;99.90
3001;DHT22;1510;51.072;6.678;2022-10-16T09:13:46;18.30;99.90
3001;DHT22;1510;51.072;6.678;2022-10-16T09:16:20;18.60;98.70
3001;DHT22;1510;51.072;6.678;2022-10-16T09:18:57;18.90;97.50
3001;DHT22;1510;51.072;6.678;2022-10-16T09:21:28;19.50;97.00
3001;DHT22;1510;51.072;6.678;2022-10-16T09:23:58;19.80;95.90
3001;DHT22;1510;51.072;6.678;2022-10-16T09:26:26;19.90;93.20
3001;DHT22;1510;51.072;6.678;2022-10-16T09:28:53;20.30;92.50
3001;DHT22;1510;51.072;6.678;2022-10-16T09:31:22;20.20;90.90
3001;DHT22;1510;51.072;6.678;2022-10-16T09:33:52;20.40;87.70
3001;DHT22;1510;51.072;6.678;2022-10-16T09:36:20;20.50;87.40
3001;DHT22;1510;51.072;6.678;2022-10-16T09:38:47;20.40;86.20
3001;DHT22;1510;51.072;6.678;2022-10-16T09:41:17;20.60;85.70
3001;DHT22;1510;51.072;6.678;2022-10-16T09:43:52;20.60;84.90
3001;DHT22;1510;51.072;6.678;2022-10-16T09:46:27;21.10;85.30
3001;DHT22;1510;51.072;6.678;2022-10-16T09:48:56;21.10;82.90
3001;DHT22;1510;51.072;6.678;2022-10-16T09:51:26;21.70;80.70
3001;DHT22;1510;51.072;6.678;2022-10-16T09:53:58;21.60;77.50
3001;DHT22;1510;51.072;6.678;2022-10-16T09:56:27;21.60;77.80
3001;DHT22;1510;51.072;6.678;2022-10-16T09:58:55;21.40;76.30
3001;DHT22;1510;51.072;6.678;2022-10-16T10:01:28;21.60;78.10
3001;DHT22;1510;51.072;6.678;2022-10-16T10:03:57;22.10;77.80
3001;DHT22;1510;51.072;6.678;2022-10-16T10:06:28;22.40;73.90
3001;DHT22;1510;51.072;6.678;2022-10-16T10:09:04;21.70;71.60
3001;DHT22;1510;51.072;6.678;2022-10-16T10:11:39;21.80;72.50
3001;DHT22;1510;51.072;6.678;2022-10-16T10:14:17;21.60;73.70
3001;DHT22;1510;51.072;6.678;2022-10-16T10:16:47;22.20;72.10
3001;DHT22;1510;51.072;6.678;2022-10-16T10:19:15;22.90;71.20
3001;DHT22;1510;51.072;6.678;2022-10-16T10:21:42;23.10;65.60
3001;DHT22;1510;51.072;6.678;2022-10-16T10:24:14;23.10;64.70
3001;DHT22;1510;51.072;6.678;2022-10-16T10:26:48;22.60;64.20
3001;DHT22;1510;51.072;6.678;2022-10-16T10:29:27;21.70;66.30
3001;DHT22;1510;51.072;6.678;2022-10-16T10:32:03;21.40;67.70
3001;DHT22;1510;51.072;6.678;2022-10-16T10:34:42;21.30;70.10
3001;DHT22;1510;51.072;6.678;2022-10-16T10:37:16;21.50;71.50
3001;DHT22;1510;51.072;6.678;2022-10-16T10:39:53;21.80;68.70
3001;DHT22;1510;51.072;6.678;2022-10-16T10:42:25;21.70;69.00
3001;DHT22;1510;51.072;6.678;2022-10-16T10:45:11;21.60;67.60
3001;DHT22;1510;51.072;6.678;2022-10-16T10:47:50;21.70;65.90
3001;DHT22;1510;51.072;6.678;2022-10-16T10:50:24;22.30;65.30
3001;DHT22;1510;51.072;6.678;2022-10-16T10:52:58;22.50;64.10
3001;DHT22;1510;51.072;6.678;2022-10-16T10:55:33;22.40;62.90
3001;DHT22;1510;51.072;6.678;2022-10-16T10:58:41;22.50;62.20
3001;DHT22;1510;51.072;6.678;2022-10-16T11:01:10;22.20;60.80
3001;DHT22;1510;51.072;6.678;2022-10-16T11:04:00;22.20;63.80
3001;DHT22;1510;51.072;6.678;2022-10-16T11:06:31;22.20;62.00
3001;DHT22;1510;51.072;6.678;2022-10-16T11:09:02;22.80;60.50
3001;DHT22;1510;51.072;6.678;2022-10-16T11:11:36;22.70;59.30
3001;DHT22;1510;51.072;6.678;2022-10-16T11:14:11;22.90;58.00
3001;DHT22;1510;51.072;6.678;2022-10-16T11:16:44;23.10;56.10
3001;DHT22;1510;51.072;6.678;2022-10-16T11:19:22;23.20;53.50
3001;DHT22;1510;51.072;6.678;2022-10-16T11:22:01;23.40;54.90
3001;DHT22;1510;51.072;6.678;2022-10-16T11:24:37;23.40;54.10
3001;DHT22;1510;51.072;6.678;2022-10-16T11:27:12;23.40;52.40
3001;DHT22;1510;51.072;6.678;2022-10-16T11:29:46;23.60;50.40
3001;DHT22;1510;51.072;6.678;2022-10-16T11:32:22;24.10;48.20
3001;DHT22;1510;51.072;6.678;2022-10-16T11:34:55;23.80;47.70
3001;DHT22;1510;51.072;6.678;2022-10-16T11:37:27;24.10;49.50
3001;DHT22;1510;51.072;6.678;2022-10-16T11:40:02;23.70;46.80
3001;DHT22;1510;51.072;6.678;2022-10-16T11:42:37;23.40;47.50
3001;DHT22;1510;51.072;6.678;2022-10-16T11:45:15;23.30;47.40
3001;DHT22;1510;51.072;6.678;2022-10-16T11:47:54;23.10;48.90
3001;DHT22;1510;51.072;6.678;2022-10-16T11:50:28;23.20;47.40
3001;DHT22;1510;51.072;6.678;2022-10-16T11:53:01;23.70;48.40
3001;DHT22;1510;51.072;6.678;2022-10-16T11:55:32;22.90;44.60
3001;DHT22;1510;51.072;6.678;2022-10-16T11:58:05;22.70;48.10
3001;DHT22;1510;51.072;6.678;2022-10-16T12:00:38;22.50;52.30
3001;DHT22;1510;51.072;6.678;2022-10-16T12:03:17;22.30;52.90
3001;DHT22;1510;51.072;6.678;2022-10-16T12:06:11;22.00;52.60
3001;DHT22;1510;51.072;6.678;2022-10-16T12:08:40;22.20;52.80
3001;DHT22;1510;51.072;6.678;2022-10-16T12:11:09;21.80;54.90
3001;DHT22;1510;51.072;6.678;2022-10-16T12:13:37;21.60;58.20
3001;DHT22;1510;51.072;6.678;2022-10-16T12:16:21;21.30;57.70
3001;DHT22;1510;51.072;6.678;2022-10-16T12:18:49;21.20;58.80
3001;DHT22;1510;51.072;6.678;2022-10-16T12:21:17;21.50;58.60
3001;DHT22;1510;51.072;6.678;2022-10-16T12:23:50;21.40;59.00
3001;DHT22;1510;51.072;6.678;2022-10-16T12:26:24;21.30;60.50
3001;DHT22;1510;51.072;6.678;2022-10-16T12:28:52;21.60;59.10
3001;DHT22;1510;51.072;6.678;2022-10-16T12:31:19;23.10;58.60
3001;DHT22;1510;51.072;6.678;2022-10-16T12:33:56;24.00;51.80
3001;DHT22;1510;51.072;6.678;2022-10-16T12:36:30;24.70;48.80
3001;DHT22;1510;51.072;6.678;2022-10-16T12:38:58;25.20;43.70
3001;DHT22;1510;51.072;6.678;2022-10-16T12:41:27;25.40;40.20
3001;DHT22;1510;51.072;6.678;2022-10-16T12:43:54;25.40;40.20
3001;DHT22;1510;51.072;6.678;2022-10-16T12:46:33;25.00;42.10
3001;DHT22;1510;51.072;6.678;2022-10-16T12:49:28;24.80;43.40
3001;DHT22;1510;51.072;6.678;2022-10-16T12:51:57;24.50;39.50
3001;DHT22;1510;51.072;6.678;2022-10-16T12:54:28;24.50;41.80
3001;DHT22;1510;51.072;6.678;2022-10-16T12:57:19;24.50;46.10
3001;DHT22;1510;51.072;6.678;2022-10-16T12:59:54;24.00;43.40
3001;DHT22;1510;51.072;6.678;2022-10-16T13:02:57;24.10;44.40
3001;DHT22;1510;51.072;6.678;2022-10-16T13:05:46;24.10;45.00
3001;DHT22;1510;51.072;6.678;2022-10-16T13:08:43;24.00;45.60
3001;DHT22;1510;51.072;6.678;2022-10-16T13:11:18;24.00;44.50
3001;DHT22;1510;51.072;6.678;2022-10-16T13:14:05;24.60;43.10
3001;DHT22;1510;51.072;6.678;2022-10-16T13:16:47;24.50;39.50
3001;DHT22;1510;51.072;6.678;2022-10-16T13:19:21;24.40;41.50
3001;DHT22;1510;51.072;6.678;2022-10-16T13:21:58;24.20;42.10
3001;DHT22;1510;51.072;6.678;2022-10-16T13:24:41;23.60;44.40
3001;DHT22;1510;51.072;6.678;2022-10-16T13:27:15;23.20;47.30
3001;DHT22;1510;51.072;6.678;2022-10-16T13:29:45;22.90;47.10
3001;DHT22;1510;51.072;6.678;2022-10-16T13:32:20;22.50;46.00
3001;DHT22;1510;51.072;6.678;2022-10-16T13:34:48;22.10;49.10
3001;DHT22;1510;51.072;6.678;2022-10-16T13:37:19;21.80;53.20
3001;DHT22;1510;51.072;6.678;2022-10-16T13:39:47;21.50;55.90
3001;DHT22;1510;51.072;6.678;2022-10-16T13:42:21;21.10;53.60
3001;DHT22;1510;51.072;6.678;2022-10-16T13:44:51;21.10;53.20
3001;DHT22;1510;51.072;6.678;2022-10-16T13:47:20;21.00;54.20
3001;DHT22;1510;51.072;6.678;2022-10-16T13:49:59;21.00;52.00
3001;DHT22;1510;51.072;6.678;2022-10-16T13:52:26;21.00;56.40
3001;DHT22;1510;51.072;6.678;2022-10-16T13:54:54;21.00;55.70
3001;DHT22;1510;51.072;6.678;2022-10-16T13:57:22;21.10;57.40
3001;DHT22;1510;51.072;6.678;2022-10-16T13:59:50;21.10;56.00
3001;DHT22;1510;51.072;6.678;2022-10-16T14:02:20;21.00;57.80
3001;DHT22;1510;51.072;6.678;2022-10-16T14:04:48;21.10;57.00
3001;DHT22;1510;51.072;6.678;2022-10-16T14:07:20;21.10;57.70
3001;DHT22;1510;51.072;6.678;2022-10-16T14:09:48;21.30;59.10
3001;DHT22;1510;51.072;6.678;2022-10-16T14:12:17;21.30;58.90
3001;DHT22;1510;51.072;6.678;2022-10-16T14:14:46;21.30;54.40
3001;DHT22;1510;51.072;6.678;2022-10-16T14:17:14;21.40;56.80
3001;DHT22;1510;51.072;6.678;2022-10-16T14:19:46;21.40;56.50
3001;DHT22;1510;51.072;6.678;2022-10-16T14:22:30;21.40;59.30
3001;DHT22;1510;51.072;6.678;2022-10-16T14:25:00;21.50;59.40
3001;DHT22;1510;51.072;6.678;2022-10-16T14:27:33;21.20;54.30
3001;DHT22;1510;51.072;6.678;2022-10-16T14:30:15;20.80;57.50
3001;DHT22;1510;51.072;6.678;2022-10-16T14:32:53;20.50;57.60
3001;DHT22;1510;51.072;6.678;2022-10-16T14:35:30;20.40;58.90
3001;DHT22;1510;51.072;6.678;2022-10-16T14:37:59;20.30;59.40
3001;DHT22;1510;51.072;6.678;2022-10-16T14:40:30;20.20;62.00
3001;DHT22;1510;51.072;6.678;2022-10-16T14:42:59;20.00;61.80
3001;DHT22;1510;51.072;6.678;2022-10-16T14:45:29;20.00;61.80
3001;DHT22;1510;51.072;6.678;2022-10-16T14:47:58;20.00;65.40
3001;DHT22;1510;51.072;6.678;2022-10-16T14:50:26;19.90;67.80
3001;DHT22;1510;51.072;6.678;2022-10-16T14:52:54;19.90;67.40
3001;DHT22;1510;51.072;6.678;2022-10-16T14:55:21;19.70;66.40
3001;DHT22;1510;51.072;6.678;2022-10-16T14:57:48;19.50;72.30
3001;DHT22;1510;51.072;6.678;2022-10-16T15:00:23;19.50;73.20
3001;DHT22;1510;51.072;6.678;2022-10-16T15:02:50;19.40;71.40
3001;DHT22;1510;51.072;6.678;2022-10-16T15:05:19;19.30;71.70
3001;DHT22;1510;51.072;6.678;2022-10-16T15:07:47;19.20;71.20
3001;DHT22;1510;51.072;6.678;2022-10-16T15:10:18;19.10;74.80
3001;DHT22;1510;51.072;6.678;2022-10-16T15:12:44;19.00;75.90
3001;DHT22;1510;51.072;6.678;2022-10-16T15:15:31;18.90;77.20
3001;DHT22;1510;51.072;6.678;2022-10-16T15:17:59;18.80;75.70
3001;DHT22;1510;51.072;6.678;2022-10-16T15:20:27;18.80;74.90
3001;DHT22;1510;51.072;6.678;2022-10-16T15:22:55;18.70;74.20
3001;DHT22;1510;51.072;6.678;2022-10-16T15:25:32;18.70;73.60
3001;DHT22;1510;51.072;6.678;2022-10-16T15:28:00;18.70;77.00
3001;DHT22;1510;51.072;6.678;2022-10-16T15:30:28;18.60;77.10
3001;DHT22;1510;51.072;6.678;2022-10-16T15:32:55;18.50;76.40
3001;DHT22;1510;51.072;6.678;2022-10-16T15:35:22;18.40;80.20
3001;DHT22;1510;51.072;6.678;2022-10-16T15:37:49;18.30;88.00
3001;DHT22;1510;51.072;6.678;2022-10-16T15:40:17;18.20;90.00
3001;DHT22;1510;51.072;6.678;2022-10-16T15:42:44;18.10;90.90
3001;DHT22;1510;51.072;6.678;2022-10-16T15:45:14;18.10;90.30
3001;DHT22;1510;51.072;6.678;2022-10-16T15:47:48;18.00;90.10
3001;DHT22;1510;51.072;6.678;2022-10-16T15:50:16;18.00;88.70
3001;DHT22;1510;51.072;6.678;2022-10-16T15:52:43;17.90;90.00
3001;DHT22;1510;51.072;6.678;2022-10-16T15:55:12;17.80;90.00
3001;DHT22;1510;51.072;6.678;2022-10-16T15:57:39;17.80;89.30
3001;DHT22;1510;51.072;6.678;2022-10-16T16:00:08;17.70;90.30
3001;DHT22;1510;51.072;6.678;2022-10-16T16:02:35;17.60;90.60
3001;DHT22;1510;51.072;6.678;2022-10-16T16:05:04;17.60;90.70
3001;DHT22;1510;51.072;6.678;2022-10-16T16:07:32;17.50;89.80
3001;DHT22;1510;51.072;6.678;2022-10-16T16:09:59;17.50;88.20
3001;DHT22;1510;51.072;6.678;2022-10-16T16:12:26;17.40;88.30
3001;DHT22;1510;51.072;6.678;2022-10-16T16:14:53;17.40;89.00
3001;DHT22;1510;51.072;6.678;2022-10-16T16:17:20;17.30;90.10
3001;DHT22;1510;51.072;6.678;2022-10-16T16:22:37;17.20;90.10
3001;DHT22;1510;51.072;6.678;2022-10-16T16:25:04;17.30;90.60
3001;DHT22;1510;51.072;6.678;2022-10-16T16:27:31;17.10;90.50
3001;DHT22;1510;51.072;6.678;2022-10-16T16:29:59;17.10;90.80
3001;DHT22;1510;51.072;6.678;2022-10-16T16:32:26;16.90;91.70
3001;DHT22;1510;51.072;6.678;2022-10-16T16:34:53;16.80;92.70
3001;DHT22;1510;51.072;6.678;2022-10-16T16:37:20;16.70;94.20
3001;DHT22;1510;51.072;6.678;2022-10-16T16:39:48;16.60;93.70
3001;DHT22;1510;51.072;6.678;2022-10-16T16:42:14;16.50;94.80
3001;DHT22;1510;51.072;6.678;2022-10-16T16:44:41;16.50;94.50